Aviation Digital Data Service (ADDS)

Output produced by METARs form (1924 UTC 25 October 2021)
found at http://www.aviationweather.gov/metar/data/
 
KGXY 251856Z AUTO 18003KT 10SM CLR 14/M01 A2985 RMK AO2 SLP105 T01391006